Ampton, United Kingdom
Current Conditions -  °F | °C
As of 4:13 AM on Monday 26 Jan 2015 (Local Time) from EGUL Reporting Station
Overcast Overcast  
Wind Chill:   Ceiling: 6000
Heat Index:   Visibility: 6mi
Dew Point:   Wind: 10mph
Humidity: 100%   Direction: 240°WSW
Pressure: 30.12"   Gusts: NA
Location:  52.33°N, 0.85°E
Report Text: EGUL 260413Z AUTO 24009KT 9999 SCT015 BKN060 OVC075 08/08 A3012 RMK AO2
Loading
Personal Weather Stations






























Interactive Weather Map New forecast layout! Learn more

10-Day Weather Forecast

Advertisements
Track Severe Weather on mobile